Miller, Missouri
Current Conditions -  °F | °C
As of 4:55 AM on Sunday 23 Nov 2014 (Local Time) from KHFJ Reporting Station
Overcast Overcast  
Wind Chill: 55°   Ceiling: 1700
Heat Index: 55°   Visibility: 10mi
Dew Point: 54°   Wind: 13mph
Humidity: 94%   Direction: 150°SSE
Pressure: 29.6"   Gusts: 17mph
Location:  37.21°N, 93.84°W
Report Text: KHFJ 231055Z AUTO 15011G15KT 10SM OVC017 13/12 A2960 RMK AO2
Loading
Personal Weather Stations






























Interactive Weather Map New forecast layout! Learn more

10-Day Weather Forecast

Advertisements
Track Severe Weather on mobile